sensor_id;sensor_type;location;lat;lon;timestamp;pressure;altitude;pressure_sealevel;temperature;humidity
56040;BME280;43937;41.366;2.072;2023-05-16T00:00:17;100408.44;;;17.75;72.27
56040;BME280;43937;41.366;2.072;2023-05-16T00:02:44;100402.88;;;17.89;71.72
56040;BME280;43937;41.366;2.072;2023-05-16T00:05:09;100406.25;;;17.91;71.30
56040;BME280;43937;41.366;2.072;2023-05-16T00:07:40;100397.25;;;18.02;70.64
56040;BME280;43937;41.366;2.072;2023-05-16T00:10:06;100379.38;;;17.86;70.52
56040;BME280;43937;41.366;2.072;2023-05-16T00:12:32;100404.75;;;17.95;70.58
56040;BME280;43937;41.366;2.072;2023-05-16T00:14:58;100396.50;;;17.88;70.25
56040;BME280;43937;41.366;2.072;2023-05-16T00:17:23;100391.88;;;17.89;70.74
56040;BME280;43937;41.366;2.072;2023-05-16T00:19:53;100385.72;;;17.87;70.65
56040;BME280;43937;41.366;2.072;2023-05-16T00:22:25;100378.75;;;17.84;70.43
56040;BME280;43937;41.366;2.072;2023-05-16T00:24:51;100366.72;;;17.78;69.83
56040;BME280;43937;41.366;2.072;2023-05-16T00:27:17;100372.41;;;17.83;68.78
56040;BME280;43937;41.366;2.072;2023-05-16T00:29:42;100340.69;;;17.74;66.63
56040;BME280;43937;41.366;2.072;2023-05-16T00:32:08;100367.66;;;17.97;65.86
56040;BME280;43937;41.366;2.072;2023-05-16T00:34:34;100368.94;;;17.95;64.39
56040;BME280;43937;41.366;2.072;2023-05-16T00:36:59;100362.41;;;18.14;63.67
56040;BME280;43937;41.366;2.072;2023-05-16T00:41:33;100334.09;;;18.07;60.14
56040;BME280;43937;41.366;2.072;2023-05-16T00:43:58;100363.53;;;18.31;58.99
56040;BME280;43937;41.366;2.072;2023-05-16T00:46:24;100361.53;;;18.39;58.07
56040;BME280;43937;41.366;2.072;2023-05-16T00:48:50;100360.06;;;18.36;57.70
56040;BME280;43937;41.366;2.072;2023-05-16T00:51:16;100344.44;;;18.30;57.10
56040;BME280;43937;41.366;2.072;2023-05-16T00:53:42;100352.69;;;18.37;57.17
56040;BME280;43937;41.366;2.072;2023-05-16T00:56:08;100350.13;;;18.35;57.27
56040;BME280;43937;41.366;2.072;2023-05-16T00:58:34;100353.53;;;18.37;58.13
56040;BME280;43937;41.366;2.072;2023-05-16T01:01:01;100357.56;;;18.35;58.81
56040;BME280;43937;41.366;2.072;2023-05-16T01:03:28;100364.16;;;18.34;58.82
56040;BME280;43937;41.366;2.072;2023-05-16T01:05:54;100359.47;;;18.34;57.80
56040;BME280;43937;41.366;2.072;2023-05-16T01:08:20;100352.34;;;18.26;57.49
56040;BME280;43937;41.366;2.072;2023-05-16T01:11:02;100356.28;;;18.37;56.53
56040;BME280;43937;41.366;2.072;2023-05-16T01:14:28;100350.22;;;18.47;55.48
56040;BME280;43937;41.366;2.072;2023-05-16T01:16:39;100347.41;;;18.53;55.21
56040;BME280;43937;41.366;2.072;2023-05-16T01:22:02;100341.34;;;18.45;55.80
56040;BME280;43937;41.366;2.072;2023-05-16T01:24:43;100341.19;;;18.40;55.39
56040;BME280;43937;41.366;2.072;2023-05-16T01:27:15;100340.03;;;18.47;55.17
56040;BME280;43937;41.366;2.072;2023-05-16T01:30:21;100327.53;;;18.26;55.62
56040;BME280;43937;41.366;2.072;2023-05-16T01:32:47;100330.47;;;18.31;56.13
56040;BME280;43937;41.366;2.072;2023-05-16T01:35:15;100337.19;;;18.36;55.73
56040;BME280;43937;41.366;2.072;2023-05-16T01:37:48;100341.03;;;18.35;56.39
56040;BME280;43937;41.366;2.072;2023-05-16T01:42:51;100341.66;;;18.12;56.88
56040;BME280;43937;41.366;2.072;2023-05-16T01:45:27;100351.84;;;18.11;56.91
56040;BME280;43937;41.366;2.072;2023-05-16T01:50:31;100352.13;;;18.03;57.62
56040;BME280;43937;41.366;2.072;2023-05-16T01:53:11;100349.03;;;17.93;58.72
56040;BME280;43937;41.366;2.072;2023-05-16T01:55:44;100352.53;;;17.75;60.11
56040;BME280;43937;41.366;2.072;2023-05-16T01:58:13;100354.28;;;17.69;59.82
56040;BME280;43937;41.366;2.072;2023-05-16T02:00:42;100353.44;;;17.69;59.87
56040;BME280;43937;41.366;2.072;2023-05-16T02:03:53;100352.41;;;17.63;58.75
56040;BME280;43937;41.366;2.072;2023-05-16T02:06:19;100346.13;;;17.56;57.32
56040;BME280;43937;41.366;2.072;2023-05-16T02:08:44;100351.75;;;17.68;56.55
56040;BME280;43937;41.366;2.072;2023-05-16T02:11:10;100355.91;;;17.77;55.36
56040;BME280;43937;41.366;2.072;2023-05-16T02:13:35;100324.63;;;17.71;54.97
56040;BME280;43937;41.366;2.072;2023-05-16T02:18:09;100321.78;;;17.84;53.73
56040;BME280;43937;41.366;2.072;2023-05-16T02:20:35;100318.13;;;17.91;53.20
56040;BME280;43937;41.366;2.072;2023-05-16T02:23:01;100348.53;;;18.02;53.07
56040;BME280;43937;41.366;2.072;2023-05-16T02:25:27;100338.34;;;18.03;52.67
56040;BME280;43937;41.366;2.072;2023-05-16T02:27:53;100345.13;;;18.07;52.34
56040;BME280;43937;41.366;2.072;2023-05-16T02:30:19;100347.63;;;18.08;53.15
56040;BME280;43937;41.366;2.072;2023-05-16T02:32:44;100338.41;;;17.96;54.48
56040;BME280;43937;41.366;2.072;2023-05-16T02:35:10;100337.69;;;17.82;54.71
56040;BME280;43937;41.366;2.072;2023-05-16T02:37:35;100342.13;;;17.83;53.98
56040;BME280;43937;41.366;2.072;2023-05-16T02:40:02;100337.38;;;17.66;53.45
56040;BME280;43937;41.366;2.072;2023-05-16T02:42:29;100340.06;;;17.72;52.25
56040;BME280;43937;41.366;2.072;2023-05-16T02:44:56;100317.56;;;17.50;50.91
56040;BME280;43937;41.366;2.072;2023-05-16T02:47:21;100336.47;;;17.72;49.68
56040;BME280;43937;41.366;2.072;2023-05-16T02:49:47;100291.44;;;17.34;49.21
56040;BME280;43937;41.366;2.072;2023-05-16T02:52:12;100340.66;;;17.81;48.27
56040;BME280;43937;41.366;2.072;2023-05-16T02:54:38;100337.06;;;17.80;47.49
56040;BME280;43937;41.366;2.072;2023-05-16T02:57:03;100330.44;;;17.88;46.97
56040;BME280;43937;41.366;2.072;2023-05-16T02:59:29;100305.97;;;17.73;46.31
56040;BME280;43937;41.366;2.072;2023-05-16T03:01:54;100330.84;;;17.92;45.87
56040;BME280;43937;41.366;2.072;2023-05-16T03:04:20;100307.47;;;17.69;45.75
56040;BME280;43937;41.366;2.072;2023-05-16T03:07:53;100328.53;;;17.89;45.60
56040;BME280;43937;41.366;2.072;2023-05-16T03:10:19;100323.84;;;17.64;46.41
56040;BME280;43937;41.366;2.072;2023-05-16T03:12:44;100324.16;;;17.74;45.93
56040;BME280;43937;41.366;2.072;2023-05-16T03:17:16;100322.63;;;17.85;45.45
56040;BME280;43937;41.366;2.072;2023-05-16T03:19:41;100330.31;;;17.76;45.90
56040;BME280;43937;41.366;2.072;2023-05-16T03:22:07;100324.38;;;17.79;45.95
56040;BME280;43937;41.366;2.072;2023-05-16T03:25:39;100327.13;;;17.79;45.62
56040;BME280;43937;41.366;2.072;2023-05-16T03:28:07;100304.72;;;17.69;45.71
56040;BME280;43937;41.366;2.072;2023-05-16T03:30:33;100320.34;;;17.75;45.24
56040;BME280;43937;41.366;2.072;2023-05-16T03:32:59;100323.72;;;17.52;45.73
56040;BME280;43937;41.366;2.072;2023-05-16T03:35:25;100315.47;;;17.52;45.93
56040;BME280;43937;41.366;2.072;2023-05-16T03:37:50;100319.66;;;17.55;46.51
56040;BME280;43937;41.366;2.072;2023-05-16T03:40:16;100311.06;;;17.45;46.30
56040;BME280;43937;41.366;2.072;2023-05-16T03:42:42;100263.81;;;17.23;46.16
56040;BME280;43937;41.366;2.072;2023-05-16T03:45:07;100284.88;;;17.35;46.53
56040;BME280;43937;41.366;2.072;2023-05-16T03:47:33;100316.75;;;17.50;46.20
56040;BME280;43937;41.366;2.072;2023-05-16T03:50:31;100314.69;;;17.38;46.70
56040;BME280;43937;41.366;2.072;2023-05-16T03:52:57;100304.75;;;17.37;46.81
56040;BME280;43937;41.366;2.072;2023-05-16T03:55:22;100323.72;;;17.52;46.15
56040;BME280;43937;41.366;2.072;2023-05-16T03:57:48;100305.66;;;17.31;46.74
56040;BME280;43937;41.366;2.072;2023-05-16T04:00:14;100298.53;;;17.17;46.56
56040;BME280;43937;41.366;2.072;2023-05-16T04:02:40;100306.56;;;17.18;46.38
56040;BME280;43937;41.366;2.072;2023-05-16T04:05:09;100317.69;;;17.30;46.92
56040;BME280;43937;41.366;2.072;2023-05-16T04:07:36;100288.41;;;17.11;46.33
56040;BME280;43937;41.366;2.072;2023-05-16T04:10:02;100309.75;;;17.15;46.85
56040;BME280;43937;41.366;2.072;2023-05-16T04:12:28;100307.63;;;17.17;47.15
56040;BME280;43937;41.366;2.072;2023-05-16T04:16:31;100312.91;;;17.19;47.01
56040;BME280;43937;41.366;2.072;2023-05-16T04:18:56;100314.78;;;17.25;46.83
56040;BME280;43937;41.366;2.072;2023-05-16T04:21:47;100312.72;;;17.14;46.72
56040;BME280;43937;41.366;2.072;2023-05-16T04:24:12;100288.66;;;17.03;46.54
56040;BME280;43937;41.366;2.072;2023-05-16T04:26:38;100292.13;;;16.91;47.44
56040;BME280;43937;41.366;2.072;2023-05-16T04:29:03;100308.31;;;17.13;47.19
56040;BME280;43937;41.366;2.072;2023-05-16T04:31:29;100269.94;;;16.86;46.99
56040;BME280;43937;41.366;2.072;2023-05-16T04:33:55;100286.75;;;17.03;46.60
56040;BME280;43937;41.366;2.072;2023-05-16T04:36:22;100315.84;;;17.24;47.20
56040;BME280;43937;41.366;2.072;2023-05-16T04:38:48;100303.41;;;17.15;47.04
56040;BME280;43937;41.366;2.072;2023-05-16T04:41:13;100304.69;;;17.12;47.30
56040;BME280;43937;41.366;2.072;2023-05-16T04:43:38;100312.69;;;17.21;46.64
56040;BME280;43937;41.366;2.072;2023-05-16T04:46:07;100302.97;;;17.18;47.01
56040;BME280;43937;41.366;2.072;2023-05-16T04:48:34;100315.66;;;17.19;46.76
56040;BME280;43937;41.366;2.072;2023-05-16T04:50:59;100326.59;;;17.32;46.76
56040;BME280;43937;41.366;2.072;2023-05-16T04:53:25;100323.03;;;17.25;47.21
56040;BME280;43937;41.366;2.072;2023-05-16T04:55:50;100296.22;;;17.14;46.95
56040;BME280;43937;41.366;2.072;2023-05-16T04:58:16;100323.50;;;17.15;47.12
56040;BME280;43937;41.366;2.072;2023-05-16T05:02:18;100327.28;;;17.21;47.13
56040;BME280;43937;41.366;2.072;2023-05-16T05:04:44;100321.72;;;17.34;46.76
56040;BME280;43937;41.366;2.072;2023-05-16T05:07:09;100334.00;;;17.32;46.33
56040;BME280;43937;41.366;2.072;2023-05-16T05:09:35;100329.91;;;17.41;46.87
56040;BME280;43937;41.366;2.072;2023-05-16T05:12:00;100329.34;;;17.64;45.68
56040;BME280;43937;41.366;2.072;2023-05-16T05:14:25;100338.13;;;19.03;42.91
56040;BME280;43937;41.366;2.072;2023-05-16T05:16:51;100327.63;;;19.12;42.22
56040;BME280;43937;41.366;2.072;2023-05-16T05:19:16;100340.75;;;18.61;43.36
56040;BME280;43937;41.366;2.072;2023-05-16T05:21:42;100337.47;;;18.27;44.31
56040;BME280;43937;41.366;2.072;2023-05-16T05:25:35;100341.03;;;18.35;43.77
56040;BME280;43937;41.366;2.072;2023-05-16T05:28:00;100334.78;;;18.46;43.56
56040;BME280;43937;41.366;2.072;2023-05-16T05:30:26;100345.28;;;18.74;43.18
56040;BME280;43937;41.366;2.072;2023-05-16T05:32:51;100333.91;;;18.64;43.11
56040;BME280;43937;41.366;2.072;2023-05-16T05:35:17;100347.34;;;18.97;42.63
56040;BME280;43937;41.366;2.072;2023-05-16T05:37:43;100271.72;;;19.47;40.53
56040;BME280;43937;41.366;2.072;2023-05-16T05:40:09;100348.09;;;21.91;37.27
56040;BME280;43937;41.366;2.072;2023-05-16T05:42:34;100358.25;;;23.36;34.96
56040;BME280;43937;41.366;2.072;2023-05-16T05:44:59;100350.75;;;23.37;34.26
56040;BME280;43937;41.366;2.072;2023-05-16T05:47:25;100352.84;;;22.25;36.16
56040;BME280;43937;41.366;2.072;2023-05-16T05:49:50;100348.34;;;22.07;36.33
56040;BME280;43937;41.366;2.072;2023-05-16T05:52:16;100356.31;;;21.69;36.80
56040;BME280;43937;41.366;2.072;2023-05-16T05:54:41;100331.44;;;21.00;37.81
56040;BME280;43937;41.366;2.072;2023-05-16T05:57:07;100322.38;;;20.65;38.25
56040;BME280;43937;41.366;2.072;2023-05-16T05:59:32;100341.09;;;20.86;38.23
56040;BME280;43937;41.366;2.072;2023-05-16T06:01:58;100350.47;;;20.97;38.44
56040;BME280;43937;41.366;2.072;2023-05-16T06:04:23;100348.97;;;21.46;37.30
56040;BME280;43937;41.366;2.072;2023-05-16T06:06:49;100348.78;;;21.99;36.65
56040;BME280;43937;41.366;2.072;2023-05-16T06:09:15;100340.28;;;21.14;37.78
56040;BME280;43937;41.366;2.072;2023-05-16T06:11:41;100350.41;;;21.66;36.92
56040;BME280;43937;41.366;2.072;2023-05-16T06:14:09;100340.09;;;21.78;36.52
56040;BME280;43937;41.366;2.072;2023-05-16T06:16:35;100333.28;;;21.12;37.74
56040;BME280;43937;41.366;2.072;2023-05-16T06:19:00;100335.84;;;20.49;39.13
56040;BME280;43937;41.366;2.072;2023-05-16T06:21:26;100349.66;;;20.38;39.22
56040;BME280;43937;41.366;2.072;2023-05-16T06:25:34;100326.91;;;19.77;40.04
56040;BME280;43937;41.366;2.072;2023-05-16T06:27:59;100329.41;;;19.66;40.76
56040;BME280;43937;41.366;2.072;2023-05-16T06:30:25;100312.66;;;19.92;40.13
56040;BME280;43937;41.366;2.072;2023-05-16T06:32:50;100358.91;;;20.20;39.70
56040;BME280;43937;41.366;2.072;2023-05-16T06:35:16;100355.66;;;20.23;39.94
56040;BME280;43937;41.366;2.072;2023-05-16T06:37:41;100316.34;;;19.74;40.25
56040;BME280;43937;41.366;2.072;2023-05-16T06:40:07;100331.84;;;19.86;40.20
56040;BME280;43937;41.366;2.072;2023-05-16T06:42:32;100344.44;;;21.28;38.14
56040;BME280;43937;41.366;2.072;2023-05-16T06:47:09;100335.84;;;21.42;37.37
56040;BME280;43937;41.366;2.072;2023-05-16T06:49:34;100370.47;;;22.18;36.28
56040;BME280;43937;41.366;2.072;2023-05-16T06:52:00;100323.66;;;23.00;34.63
56040;BME280;43937;41.366;2.072;2023-05-16T06:54:26;100340.53;;;23.20;33.93
56040;BME280;43937;41.366;2.072;2023-05-16T06:56:51;100334.97;;;24.02;32.45
56040;BME280;43937;41.366;2.072;2023-05-16T07:00:12;100342.81;;;25.83;29.49
56040;BME280;43937;41.366;2.072;2023-05-16T07:02:38;100362.31;;;26.75;29.11
56040;BME280;43937;41.366;2.072;2023-05-16T07:05:03;100364.50;;;26.83;28.21
56040;BME280;43937;41.366;2.072;2023-05-16T07:07:29;100364.13;;;27.65;26.99
56040;BME280;43937;41.366;2.072;2023-05-16T07:09:54;100361.09;;;29.55;25.24
56040;BME280;43937;41.366;2.072;2023-05-16T07:12:19;100364.88;;;30.02;24.38
56040;BME280;43937;41.366;2.072;2023-05-16T07:14:45;100371.22;;;29.75;24.16
56040;BME280;43937;41.366;2.072;2023-05-16T07:17:12;100360.47;;;29.39;24.24
56040;BME280;43937;41.366;2.072;2023-05-16T07:19:37;100360.25;;;29.55;24.46
56040;BME280;43937;41.366;2.072;2023-05-16T07:22:03;100369.66;;;29.02;24.84
56040;BME280;43937;41.366;2.072;2023-05-16T07:24:29;100354.31;;;28.94;25.03
56040;BME280;43937;41.366;2.072;2023-05-16T07:26:54;100338.22;;;30.19;23.24
56040;BME280;43937;41.366;2.072;2023-05-16T07:30:09;100337.59;;;29.89;23.04
56040;BME280;43937;41.366;2.072;2023-05-16T07:34:23;100365.38;;;30.70;23.12
56040;BME280;43937;41.366;2.072;2023-05-16T07:36:48;100368.34;;;30.32;23.55
56040;BME280;43937;41.366;2.072;2023-05-16T07:39:14;100380.63;;;30.36;23.70
56040;BME280;43937;41.366;2.072;2023-05-16T07:43:09;100379.59;;;31.06;22.49
56040;BME280;43937;41.366;2.072;2023-05-16T07:45:34;100366.56;;;30.83;22.61
56040;BME280;43937;41.366;2.072;2023-05-16T07:50:09;100330.78;;;30.28;22.78
56040;BME280;43937;41.366;2.072;2023-05-16T07:54:08;100374.22;;;28.93;24.91
56040;BME280;43937;41.366;2.072;2023-05-16T07:56:34;100358.81;;;29.57;24.06
56040;BME280;43937;41.366;2.072;2023-05-16T07:58:59;100382.47;;;30.27;22.62
56040;BME280;43937;41.366;2.072;2023-05-16T08:01:25;100373.63;;;29.63;23.33
56040;BME280;43937;41.366;2.072;2023-05-16T08:03:50;100352.38;;;28.42;25.44
56040;BME280;43937;41.366;2.072;2023-05-16T08:06:17;100390.66;;;27.13;26.22
56040;BME280;43937;41.366;2.072;2023-05-16T08:10:30;100376.59;;;26.33;27.89
56040;BME280;43937;41.366;2.072;2023-05-16T08:12:56;100383.84;;;26.13;28.12
56040;BME280;43937;41.366;2.072;2023-05-16T08:15:21;100370.44;;;26.15;28.31
56040;BME280;43937;41.366;2.072;2023-05-16T08:17:47;100349.38;;;27.54;26.49
56040;BME280;43937;41.366;2.072;2023-05-16T08:20:12;100373.44;;;28.63;25.59
56040;BME280;43937;41.366;2.072;2023-05-16T08:22:38;100378.53;;;28.56;25.04
56040;BME280;43937;41.366;2.072;2023-05-16T08:25:03;100377.63;;;29.14;24.36
56040;BME280;43937;41.366;2.072;2023-05-16T08:27:29;100386.25;;;28.35;25.09
56040;BME280;43937;41.366;2.072;2023-05-16T08:29:54;100368.00;;;28.48;24.92
56040;BME280;43937;41.366;2.072;2023-05-16T08:32:20;100373.44;;;28.63;24.70
56040;BME280;43937;41.366;2.072;2023-05-16T08:34:46;100359.69;;;30.09;22.35
56040;BME280;43937;41.366;2.072;2023-05-16T08:37:12;100380.91;;;30.02;22.69
56040;BME280;43937;41.366;2.072;2023-05-16T08:39:38;100355.91;;;30.66;22.16
56040;BME280;43937;41.366;2.072;2023-05-16T08:42:03;100352.00;;;30.80;22.07
56040;BME280;43937;41.366;2.072;2023-05-16T08:44:29;100371.03;;;30.37;22.67
56040;BME280;43937;41.366;2.072;2023-05-16T08:46:56;100370.94;;;29.53;23.34
56040;BME280;43937;41.366;2.072;2023-05-16T08:49:26;100367.47;;;29.80;23.08
56040;BME280;43937;41.366;2.072;2023-05-16T08:51:55;100365.03;;;29.54;23.40
56040;BME280;43937;41.366;2.072;2023-05-16T08:54:21;100367.34;;;29.90;23.18
56040;BME280;43937;41.366;2.072;2023-05-16T08:56:48;100372.34;;;30.26;23.11
56040;BME280;43937;41.366;2.072;2023-05-16T08:59:15;100366.75;;;29.50;23.25
56040;BME280;43937;41.366;2.072;2023-05-16T09:03:32;100369.16;;;29.38;24.35
56040;BME280;43937;41.366;2.072;2023-05-16T09:05:58;100353.59;;;28.60;25.20
56040;BME280;43937;41.366;2.072;2023-05-16T09:08:23;100352.66;;;28.35;24.92
56040;BME280;43937;41.366;2.072;2023-05-16T09:10:49;100358.34;;;28.59;24.70
56040;BME280;43937;41.366;2.072;2023-05-16T09:13:14;100356.72;;;28.53;24.68
56040;BME280;43937;41.366;2.072;2023-05-16T09:15:40;100328.94;;;28.33;24.28
56040;BME280;43937;41.366;2.072;2023-05-16T09:18:11;100363.34;;;28.62;24.63
56040;BME280;43937;41.366;2.072;2023-05-16T09:22:25;100352.63;;;28.40;24.34
56040;BME280;43937;41.366;2.072;2023-05-16T09:24:50;100355.91;;;28.76;23.64
56040;BME280;43937;41.366;2.072;2023-05-16T09:27:17;100346.91;;;28.80;23.33
56040;BME280;43937;41.366;2.072;2023-05-16T09:29:43;100342.88;;;28.67;24.02
56040;BME280;43937;41.366;2.072;2023-05-16T09:32:12;100362.03;;;28.54;24.30
56040;BME280;43937;41.366;2.072;2023-05-16T09:34:46;100345.19;;;28.84;23.44
56040;BME280;43937;41.366;2.072;2023-05-16T09:37:13;100362.25;;;29.11;23.71
56040;BME280;43937;41.366;2.072;2023-05-16T09:39:46;100357.72;;;29.15;23.20
56040;BME280;43937;41.366;2.072;2023-05-16T09:42:13;100368.97;;;29.10;22.77
56040;BME280;43937;41.366;2.072;2023-05-16T09:44:38;100363.66;;;29.33;22.35
56040;BME280;43937;41.366;2.072;2023-05-16T09:47:04;100349.66;;;28.85;24.01
56040;BME280;43937;41.366;2.072;2023-05-16T09:49:30;100358.34;;;29.31;22.72
56040;BME280;43937;41.366;2.072;2023-05-16T09:52:00;100335.47;;;29.43;22.69
56040;BME280;43937;41.366;2.072;2023-05-16T09:54:32;100341.66;;;28.73;23.01
56040;BME280;43937;41.366;2.072;2023-05-16T09:56:58;100357.66;;;28.96;22.53
56040;BME280;43937;41.366;2.072;2023-05-16T09:59:27;100358.94;;;29.28;21.97
56040;BME280;43937;41.366;2.072;2023-05-16T10:01:52;100341.06;;;29.43;21.71
56040;BME280;43937;41.366;2.072;2023-05-16T10:04:19;100345.47;;;29.49;21.42
56040;BME280;43937;41.366;2.072;2023-05-16T10:06:45;100358.28;;;29.55;20.68
56040;BME280;43937;41.366;2.072;2023-05-16T10:09:11;100354.50;;;30.03;20.16
56040;BME280;43937;41.366;2.072;2023-05-16T10:11:39;100346.34;;;29.69;20.66
56040;BME280;43937;41.366;2.072;2023-05-16T10:14:06;100347.22;;;30.02;20.26
56040;BME280;43937;41.366;2.072;2023-05-16T10:16:32;100345.31;;;29.97;20.95
56040;BME280;43937;41.366;2.072;2023-05-16T10:18:59;100339.09;;;30.00;21.22
56040;BME280;43937;41.366;2.072;2023-05-16T10:21:27;100332.31;;;30.01;21.05
56040;BME280;43937;41.366;2.072;2023-05-16T10:23:55;100349.09;;;29.50;21.23
56040;BME280;43937;41.366;2.072;2023-05-16T10:26:23;100334.84;;;29.46;22.08
56040;BME280;43937;41.366;2.072;2023-05-16T10:28:50;100333.41;;;30.05;20.68
56040;BME280;43937;41.366;2.072;2023-05-16T10:31:16;100325.78;;;29.54;20.84
56040;BME280;43937;41.366;2.072;2023-05-16T10:33:42;100337.31;;;29.72;21.25
56040;BME280;43937;41.366;2.072;2023-05-16T10:36:09;100340.94;;;29.91;20.19
56040;BME280;43937;41.366;2.072;2023-05-16T10:38:37;100339.63;;;30.02;20.45
56040;BME280;43937;41.366;2.072;2023-05-16T10:41:04;100336.34;;;29.95;23.53
56040;BME280;43937;41.366;2.072;2023-05-16T10:43:30;100327.22;;;29.71;26.17
56040;BME280;43937;41.366;2.072;2023-05-16T10:46:01;100333.91;;;29.75;27.52
56040;BME280;43937;41.366;2.072;2023-05-16T10:48:35;100337.19;;;28.48;28.52
56040;BME280;43937;41.366;2.072;2023-05-16T10:51:01;100330.69;;;28.23;29.13
56040;BME280;43937;41.366;2.072;2023-05-16T11:02:32;100346.78;;;27.18;31.62
56040;BME280;43937;41.366;2.072;2023-05-16T11:05:05;100340.78;;;27.46;31.51
56040;BME280;43937;41.366;2.072;2023-05-16T11:07:35;100342.72;;;26.80;32.64
56040;BME280;43937;41.366;2.072;2023-05-16T11:10:14;100346.44;;;27.30;32.31
56040;BME280;43937;41.366;2.072;2023-05-16T11:12:45;100340.78;;;27.46;31.58
56040;BME280;43937;41.366;2.072;2023-05-16T11:15:27;100351.34;;;26.99;32.32
56040;BME280;43937;41.366;2.072;2023-05-16T11:18:23;100350.78;;;26.97;32.47
56040;BME280;43937;41.366;2.072;2023-05-16T11:20:50;100350.97;;;27.11;33.17
56040;BME280;43937;41.366;2.072;2023-05-16T11:23:24;100344.75;;;26.34;34.16
56040;BME280;43937;41.366;2.072;2023-05-16T11:25:55;100340.94;;;27.10;32.90
56040;BME280;43937;41.366;2.072;2023-05-16T11:28:23;100344.41;;;26.76;34.04
56040;BME280;43937;41.366;2.072;2023-05-16T11:30:52;100306.88;;;25.92;35.52
56040;BME280;43937;41.366;2.072;2023-05-16T11:33:21;100348.28;;;26.85;35.44
56040;BME280;43937;41.366;2.072;2023-05-16T11:36:03;100340.75;;;27.51;33.66
56040;BME280;43937;41.366;2.072;2023-05-16T11:38:30;100336.25;;;27.55;33.55
56040;BME280;43937;41.366;2.072;2023-05-16T11:41:06;100343.00;;;27.44;33.58
56040;BME280;43937;41.366;2.072;2023-05-16T11:43:43;100315.03;;;27.49;33.70
56040;BME280;43937;41.366;2.072;2023-05-16T11:46:15;100321.88;;;27.32;33.26
56040;BME280;43937;41.366;2.072;2023-05-16T11:48:41;100310.63;;;27.82;32.62
56040;BME280;43937;41.366;2.072;2023-05-16T11:51:08;100335.56;;;27.73;32.36
56040;BME280;43937;41.366;2.072;2023-05-16T11:53:34;100294.44;;;27.74;31.67
56040;BME280;43937;41.366;2.072;2023-05-16T11:56:00;100314.00;;;27.74;31.57
56040;BME280;43937;41.366;2.072;2023-05-16T11:58:26;100324.50;;;27.53;31.90
56040;BME280;43937;41.366;2.072;2023-05-16T12:00:52;100314.16;;;27.93;31.08
56040;BME280;43937;41.366;2.072;2023-05-16T12:03:18;100319.59;;;28.13;30.54
56040;BME280;43937;41.366;2.072;2023-05-16T12:05:52;100319.53;;;27.45;30.62
56040;BME280;43937;41.366;2.072;2023-05-16T12:08:20;100318.00;;;27.62;31.05
56040;BME280;43937;41.366;2.072;2023-05-16T12:10:47;100300.81;;;27.84;29.04
56040;BME280;43937;41.366;2.072;2023-05-16T12:13:14;100311.91;;;27.55;28.92
56040;BME280;43937;41.366;2.072;2023-05-16T12:15:40;100274.97;;;27.58;28.97
56040;BME280;43937;41.366;2.072;2023-05-16T12:18:06;100308.97;;;28.10;29.23
56040;BME280;43937;41.366;2.072;2023-05-16T12:20:32;100302.06;;;28.02;29.07
56040;BME280;43937;41.366;2.072;2023-05-16T12:22:58;100296.72;;;28.06;29.02
56040;BME280;43937;41.366;2.072;2023-05-16T12:25:26;100297.00;;;28.34;28.33
56040;BME280;43937;41.366;2.072;2023-05-16T12:27:57;100292.78;;;28.07;28.91
56040;BME280;43937;41.366;2.072;2023-05-16T12:30:24;100285.31;;;27.97;29.13
56040;BME280;43937;41.366;2.072;2023-05-16T12:33:01;100287.22;;;28.60;27.88
56040;BME280;43937;41.366;2.072;2023-05-16T12:35:32;100269.81;;;28.10;28.17
56040;BME280;43937;41.366;2.072;2023-05-16T12:37:58;100281.06;;;28.05;28.22
56040;BME280;43937;41.366;2.072;2023-05-16T12:40:27;100291.53;;;28.71;27.19
56040;BME280;43937;41.366;2.072;2023-05-16T12:42:53;100284.09;;;28.62;26.66
56040;BME280;43937;41.366;2.072;2023-05-16T12:45:20;100275.25;;;28.25;25.99
56040;BME280;43937;41.366;2.072;2023-05-16T12:47:48;100288.03;;;28.85;25.68
56040;BME280;43937;41.366;2.072;2023-05-16T12:50:14;100275.13;;;29.08;24.93
56040;BME280;43937;41.366;2.072;2023-05-16T12:52:50;100277.41;;;29.25;24.89
56040;BME280;43937;41.366;2.072;2023-05-16T12:55:16;100267.94;;;28.77;24.72
56040;BME280;43937;41.366;2.072;2023-05-16T12:57:43;100277.41;;;28.04;25.23
56040;BME280;43937;41.366;2.072;2023-05-16T13:00:11;100283.69;;;28.73;24.75
56040;BME280;43937;41.366;2.072;2023-05-16T13:02:37;100267.44;;;29.18;23.85
56040;BME280;43937;41.366;2.072;2023-05-16T13:05:03;100261.34;;;29.49;23.77
56040;BME280;43937;41.366;2.072;2023-05-16T13:07:29;100255.00;;;29.25;23.79
56040;BME280;43937;41.366;2.072;2023-05-16T13:09:55;100251.53;;;29.33;24.38
56040;BME280;43937;41.366;2.072;2023-05-16T13:12:20;100225.91;;;28.59;26.00
56040;BME280;43937;41.366;2.072;2023-05-16T13:15:19;100226.22;;;30.03;24.48
56040;BME280;43937;41.366;2.072;2023-05-16T13:17:44;100251.75;;;30.48;23.77
56040;BME280;43937;41.366;2.072;2023-05-16T13:21:27;100259.50;;;29.58;24.17
56040;BME280;43937;41.366;2.072;2023-05-16T13:23:55;100258.31;;;29.64;23.83
56040;BME280;43937;41.366;2.072;2023-05-16T13:26:21;100236.31;;;29.53;24.31
56040;BME280;43937;41.366;2.072;2023-05-16T13:28:46;100252.25;;;30.23;23.78
56040;BME280;43937;41.366;2.072;2023-05-16T13:31:15;100268.34;;;30.17;24.13
56040;BME280;43937;41.366;2.072;2023-05-16T13:33:41;100274.81;;;29.85;25.04
56040;BME280;43937;41.366;2.072;2023-05-16T13:36:06;100257.06;;;28.52;26.24
56040;BME280;43937;41.366;2.072;2023-05-16T13:40:29;100248.31;;;28.05;26.11
56040;BME280;43937;41.366;2.072;2023-05-16T13:42:55;100241.72;;;28.20;25.59